KPKB/PKB METAR and TAF weather

Enter ICAO airport designator
Station Type Date Time Source
KPKB METAR 2020/11/27 14:53 UTC NOAA

KPKB 271453Z 21004KT 10SM OVC035 10/08 A3013 RMK AO2 SLP204 T01000078 51004


Station Type Date Time Source
KPKB Decoded METAR 2020/11/27 14:53 UTC NOAA

MID-OHIO VALLEY RGNL AIRPORT, WV, United States (KPKB) 39-20N 81-27W
Nov 27, 2020 - 09:53 AM EST / 2020.11.27 1453 UTC
Wind: from the SSW (210 degrees) at 5 MPH (4 KT):0
Visibility: 10 mile(s):0
Sky conditions: overcast
Temperature: 50.0 F (10.0 C)
Dew Point: 46.0 F (7.8 C)
Relative Humidity: 86%
Pressure (altimeter): 30.13 in. Hg (1020 hPa)
Pressure tendency: 0.01 inches (0.4 hPa) higher than three hours ago
ob: KPKB 271453Z 21004KT 10SM OVC035 10/08 A3013 RMK AO2 SLP204 T01000078 51004
cycle: 15

Station Type Date Time Source
KPKB TAF 2020/11/27 14:24 UTC NOAA

TAF
AMD KPKB 271420Z 2714/2812 00000KT P6SM OVC035
TEMPO 2714/2718 OVC025
FM281000 30003KT P6SM BKN022

Example: see airport list